Flight Track Log - Related Links

Times and Time Zones

All times are in EDT time to prevent confusion due to time zone crossing. See the RPA4911 flight status page for this flight to view local times or setup timezone preferences in your user account.

Time Position Orientation Groundspeed Altitude Reporting Facility
EDT Latitude Longitude Course Direction KTS MPH feet Rate Location/Type
Tue 06:38:57 AM 42.7694 -73.8089 200° South 166 191 1,300  Level Boston Center
Tue 06:40:04 AM 42.8147 -73.8553 323° Northwest 219 252 3,800 2,391 Climbing Boston Center
Tue 06:41:00 AM 42.4826 -73.8509 196° South  Level Estimated
Tue 06:41:05 AM 42.7642 -73.8853 204° Southwest 203 234 6,400  Level Boston Center
Tue 06:42:00 AM 42.3938 -73.8671 197° South  Level Estimated
Tue 06:42:08 AM 42.7100 -73.9008 192° South 216 249 8,600  Level Boston Center
Tue 06:43:00 AM 42.3200 -73.9360 215° Southwest  Level FlightAware Approximate
Tue 06:43:08 AM 42.6514 -73.9194 193° South 221 254 10,500  Level Boston Center
Tue 06:44:00 AM 42.2309 -73.9490 200° South  Level Estimated
Tue 06:44:08 AM 42.5781 -73.9372 190° South 234 269 11,700  Level Boston Center
Tue 06:45:08 AM 42.5092 -73.9553 191° South 270 311 12,500 700 Climbing Boston Center
Tue 06:46:08 AM 42.4192 -73.9814 192° South 298 343 13,100 600 Climbing Boston Center
Tue 06:47:08 AM 42.3439 -74.0019 191° South 309 356 13,700 450 Climbing Boston Center
Tue 06:48:08 AM 42.2475 -74.0275 191° South 316 364 14,000 150 Climbing Boston Center
Tue 06:49:08 AM 42.1719 -74.0619 199° South 316 364 14,000  Level Boston Center
Tue 06:50:08 AM 42.0819 -74.1017 198° South 316 364 14,000 50 Level Boston Center
Tue 06:51:08 AM 41.9981 -74.1358 197° South 316 364 14,100 50 Climbing Boston Center
Tue 06:52:08 AM 41.9203 -74.1700 198° South 322 371 14,100  Level Boston Center
Tue 06:53:08 AM 41.8281 -74.2119 199° South 328 377 14,100 -50 Level Boston Center
Tue 06:54:08 AM 41.7503 -74.2461 198° South 323 372 14,000 -750 Descending Boston Center
Tue 06:55:08 AM 41.6642 -74.2853 199° South 317 365 12,600 -1,600 Descending Boston Center
Tue 06:56:08 AM 41.5928 -74.3136 197° South 305 351 10,800 -1,750 Descending Boston Center
Tue 06:57:08 AM 41.5153 -74.3475 198° South 280 322 9,100 -1,207 Descending Boston Center
Tue 06:59:12 AM 41.3833 -74.3833 192° South 248 285 7,100 -944 Descending New York TRACON
Tue 07:00:06 AM 41.3167 -74.3500 159° South 257 296 6,300 -526 Descending New York TRACON
Tue 07:01:06 AM 41.2500 -74.3167 159° South 254 292 6,100 -571 Descending New York TRACON
Tue 07:02:12 AM 41.1833 -74.2667 151° Southeast 251 289 5,100 -571 Descending New York TRACON
Tue 07:03:12 AM 41.1333 -74.2333 153° Southeast 244 281 4,900 -500 Descending New York TRACON
Tue 07:04:12 AM 41.0667 -74.2000 159° South 241 277 4,100 -400 Descending New York TRACON
Tue 07:05:12 AM 41.0000 -74.1500 150° Southeast 243 280 4,100  Level New York TRACON
Tue 07:06:12 AM 40.9500 -74.1167 153° Southeast 244 281 4,100 -500 Level New York TRACON
Tue 07:07:12 AM 40.8833 -74.0833 159° South 239 275 3,100 -750 Descending New York TRACON
Tue 07:08:12 AM 40.8167 -74.0833 180° South 228 262 2,600 -500 Descending New York TRACON

Login

Don't have an account? Register now (free) for customized features, flight alerts, and more!